Main page
METAR-TAF:

Airports :

London-Southend, England

London Southend Airport

latitude: 51-34N, longitude: 000-42E, elevation: 15 m

Current weather observation

The report was made 24 minutes ago, at 17:20 UTC
Wind 5 kt from the West
Temperature 17°C
Humidity 68%
Pressure 1015 hPa
Visibility 10 km or more
Few clouds at a height of 3000 ft
Few clouds at a height of 4600 ft, Cumulonimbus.
showers in vicinity

METAR: EGMC 251720Z 26005KT 9999 VCSH FEW030 FEW046CB 17/11 Q1015

Time: 18:44 (17:44 UTC)

Forecast

The report was made 3 hours and 41 minutes ago, at 14:03 UTC
Forecast valid from 25 at 15 UTC to 25 at 24 UTC
Wind 10 kt from the West/Northwest
Visibility 10 km or more
Scattered clouds at a height of 3000 ft, Cumulonimbus.
Temporary
from 25 at 15 UTC to 25 at 21 UTC
Visibility: 4000 m
heavy rain showers, thunderstorm, rain
Becoming
from 25 at 18 UTC to 25 at 21 UTC
Wind 3 kt from variable directions

TAF: EGMC 251403Z 2515/2524 29010KT 9999 SCT030CB TEMPO 2515/2521 4000 +SHRA TSRA BECMG 2518/2521 VRB03KT

METAR-TAF

Weather observations and forecasts of more than 4000 airports (METAR and TAF reports).

The available stations are represented by yellow and red dots on the map.

Hover mouse over dot to see the name of the station.

Then click to see weather observations and forecasts.

To change the map : click on the green buttons with a black cross to zoom in, on the green button with a dash to zoom out, or on the green arrows for adjacent maps.


METAR-TAF: